Time;durP1;ratioP1;P1;durP2;ratioP2;P2;SDS_P1;SDS_P2;PMS_P1;PMS_P2;Temp;Humidity;BMP_temperature;BMP_pressure;BME280_temperature;BME280_humidity;BME280_pressure;Samples;Min_cycle;Max_cycle;Signal;HPM_P1;HPM_P2
2023/02/13 00:02:23;;;;;;;73.68;30.75;;;8.20;99.90;;;;;;5073389;28;20188;-79
2023/02/13 00:04:48;;;;;;;69.15;31.65;;;8.30;99.90;;;;;;5073490;28;20583;-80
2023/02/13 00:07:14;;;;;;;70.97;30.10;;;8.20;99.90;;;;;;5072100;28;20166;-80
2023/02/13 00:09:40;;;;;;;72.57;31.33;;;8.20;99.90;;;;;;5073384;28;20205;-80
2023/02/13 00:12:07;;;;;;;77.47;29.33;;;8.10;99.90;;;;;;5073129;28;20206;-80
2023/02/13 00:14:37;;;;;;;71.80;31.77;;;8.10;99.90;;;;;;5073406;28;20182;-80
2023/02/13 00:17:04;;;;;;;73.60;30.85;;;8.20;99.90;;;;;;5073098;28;20167;-80
2023/02/13 00:19:29;;;;;;;71.45;31.15;;;8.20;99.90;;;;;;5072501;28;20202;-80
2023/02/13 00:21:55;;;;;;;75.68;31.23;;;8.00;99.90;;;;;;5073241;28;20228;-80
2023/02/13 00:24:21;;;;;;;77.85;31.70;;;7.90;99.90;;;;;;5071838;28;20170;-79
2023/02/13 00:26:46;;;;;;;80.65;32.80;;;8.00;99.90;;;;;;5073107;28;20169;-80
2023/02/13 00:29:12;;;;;;;77.93;31.00;;;8.00;99.90;;;;;;5073007;28;20705;-79
2023/02/13 00:31:37;;;;;;;77.80;33.60;;;7.90;99.90;;;;;;5071030;28;20198;-80
2023/02/13 00:34:03;;;;;;;68.57;31.08;;;7.80;99.90;;;;;;5071750;28;20173;-80
2023/02/13 00:36:29;;;;;;;72.30;31.95;;;7.90;99.90;;;;;;5071481;28;20167;-80
2023/02/13 00:38:54;;;;;;;84.45;32.53;;;8.10;99.90;;;;;;5072968;28;20213;-80
2023/02/13 00:41:20;;;;;;;72.82;31.58;;;8.00;99.90;;;;;;5071401;28;20163;-79
2023/02/13 00:43:47;;;;;;;75.32;30.60;;;8.00;99.90;;;;;;5072704;28;20627;-80
2023/02/13 00:46:14;;;;;;;79.28;32.55;;;8.10;99.90;;;;;;5072704;28;20170;-79
2023/02/13 00:48:40;;;;;;;82.60;32.85;;;8.10;99.90;;;;;;5072606;28;20281;-80
2023/02/13 00:51:06;;;;;;;87.80;34.00;;;8.10;99.90;;;;;;5071302;28;20210;-80
2023/02/13 00:53:33;;;;;;;73.65;31.30;;;7.90;99.90;;;;;;5072534;28;20163;-81
2023/02/13 00:55:59;;;;;;;84.70;34.10;;;7.90;99.90;;;;;;5072483;28;20214;-81
2023/02/13 00:58:24;;;;;;;90.50;33.38;;;7.70;99.90;;;;;;5071251;28;20678;-79
2023/02/13 01:00:51;;;;;;;84.07;33.53;;;7.50;99.90;;;;;;5071356;28;20181;-80
2023/02/13 01:03:18;;;;;;;85.13;34.38;;;7.30;99.90;;;;;;5071279;28;20195;-80
2023/02/13 01:05:44;;;;;;;89.97;35.08;;;7.40;99.90;;;;;;5071411;28;20190;-80
2023/02/13 01:08:11;;;;;;;76.00;31.25;;;7.50;99.90;;;;;;5072647;28;20634;-80
2023/02/13 01:10:40;;;;;;;88.72;33.05;;;7.60;99.90;;;;;;5072806;28;20257;-79
2023/02/13 01:13:07;;;;;;;90.10;33.25;;;7.60;99.90;;;;;;5072818;28;20193;-80
2023/02/13 01:15:33;;;;;;;89.95;35.53;;;7.70;99.90;;;;;;5072059;28;20170;-79
2023/02/13 01:17:59;;;;;;;86.10;34.90;;;7.70;99.90;;;;;;5072398;28;20166;-80
2023/02/13 01:20:26;;;;;;;90.60;34.47;;;7.50;99.90;;;;;;5072636;28;20162;-79
2023/02/13 01:22:52;;;;;;;95.28;35.25;;;7.50;99.90;;;;;;5072421;28;20209;-80
2023/02/13 01:25:19;;;;;;;84.35;33.58;;;7.70;99.90;;;;;;5072361;28;20162;-80
2023/02/13 01:27:44;;;;;;;85.65;35.05;;;7.70;99.90;;;;;;5072485;28;20246;-79
2023/02/13 01:30:13;;;;;;;88.65;33.38;;;7.70;99.90;;;;;;5072566;28;20625;-80
2023/02/13 01:32:40;;;;;;;96.53;35.22;;;7.70;99.90;;;;;;5070604;28;20186;-79
2023/02/13 01:35:07;;;;;;;86.72;33.80;;;7.70;99.90;;;;;;5072130;28;20167;-80
2023/02/13 01:37:33;;;;;;;89.25;33.45;;;7.50;99.90;;;;;;5070614;28;20216;-80
2023/02/13 01:39:58;;;;;;;85.85;33.78;;;7.40;99.90;;;;;;5072082;28;20209;-80
2023/02/13 01:42:27;;;;;;;90.28;35.35;;;7.40;99.90;;;;;;5071752;28;20265;-79
2023/02/13 01:44:58;;;;;;;84.05;35.30;;;7.40;99.90;;;;;;5076070;28;20170;-79
2023/02/13 01:47:40;;;;;;;87.90;35.53;;;7.40;99.90;;;;;;5075993;28;20165;-80
2023/02/13 01:50:14;;;;;;;86.47;34.97;;;7.40;99.90;;;;;;5075039;28;20173;-80
2023/02/13 01:52:51;;;;;;;91.43;33.47;;;7.60;99.90;;;;;;5076282;28;20186;-80
2023/02/13 01:55:18;;;;;;;86.68;33.10;;;7.80;99.90;;;;;;5075582;28;20208;-79
2023/02/13 01:57:49;;;;;;;83.35;33.20;;;7.80;99.90;;;;;;5075999;28;20181;-80
2023/02/13 02:00:16;;;;;;;88.80;35.72;;;7.80;99.90;;;;;;5076115;28;20183;-80
2023/02/13 02:02:49;;;;;;;92.35;35.63;;;7.70;99.90;;;;;;5076006;28;20185;-80
2023/02/13 02:05:17;;;;;;;92.13;36.00;;;7.80;99.90;;;;;;5075577;28;20685;-80
2023/02/13 02:07:44;;;;;;;81.72;34.40;;;7.80;99.90;;;;;;5074105;28;20176;-79
2023/02/13 02:10:16;;;;;;;84.15;34.35;;;7.60;99.90;;;;;;5074541;28;20197;-80
2023/02/13 02:12:50;;;;;;;81.43;34.15;;;7.40;99.90;;;;;;5075536;28;20583;-80
2023/02/13 02:15:16;;;;;;;80.82;32.97;;;7.10;99.90;;;;;;5075868;28;20202;-81
2023/02/13 02:17:42;;;;;;;93.53;34.95;;;7.10;99.90;;;;;;5075880;28;20535;-79
2023/02/13 02:20:36;;;;;;;90.65;35.13;;;7.20;99.90;;;;;;5075717;28;20208;-79
2023/02/13 02:23:22;;;;;;;88.35;35.47;;;7.40;99.90;;;;;;5075555;28;20217;-81
2023/02/13 02:26:39;;;;;;;86.80;32.97;;;7.40;99.90;;;;;;5075620;28;20247;-79
2023/02/13 02:29:16;;;;;;;85.68;34.53;;;7.40;99.90;;;;;;5052202;28;20240;-80
2023/02/13 02:32:25;;;;;;;87.00;34.42;;;7.50;99.90;;;;;;5075188;28;20576;-79
2023/02/13 02:35:10;;;;;;;85.88;32.65;;;7.40;99.90;;;;;;5051785;28;20182;-80
2023/02/13 02:37:59;;;;;;;84.45;31.65;;;7.10;99.90;;;;;;5075212;28;20190;-80
2023/02/13 02:40:30;;;;;;;87.35;32.83;;;6.90;99.90;;;;;;5073583;28;20247;-80
2023/02/13 02:43:17;;;;;;;82.05;33.53;;;7.10;99.90;;;;;;5075012;28;20195;-79
2023/02/13 02:45:55;;;;;;;80.63;32.22;;;7.20;99.90;;;;;;5074942;28;20529;-80
2023/02/13 02:51:29;;;;;;;81.70;34.33;;;7.30;99.90;;;;;;5075280;28;20277;-80
2023/02/13 02:53:57;;;;;;;81.55;34.00;;;7.30;99.90;;;;;;5074623;28;20219;-80
2023/02/13 02:56:37;;;;;;;84.22;34.30;;;7.30;99.90;;;;;;5074833;28;20181;-80
2023/02/13 03:07:40;;;;;;;92.65;34.70;;;7.20;99.90;;;;;;5074725;28;20173;-80
2023/02/13 03:13:21;;;;;;;86.80;34.03;;;7.30;99.90;;;;;;5074459;28;20691;-80
2023/02/13 03:22:20;;;;;;;90.90;34.90;;;7.10;99.90;;;;;;5074739;28;20314;-80
2023/02/13 03:25:29;;;;;;;81.60;31.77;;;7.20;99.90;;;;;;5092141;28;20173;-81
2023/02/13 03:31:05;;;;;;;96.78;37.70;;;7.20;99.90;;;;;;5095314;28;20165;-81
2023/02/13 03:33:56;;;;;;;76.88;32.05;;;7.20;99.90;;;;;;5093692;28;20167;-83
2023/02/13 03:39:32;;;;;;;92.07;33.20;;;7.10;99.90;;;;;;5078331;28;20697;-78
2023/02/13 03:42:06;;;;;;;82.05;32.17;;;7.00;99.90;;;;;;5074017;28;20198;-79
2023/02/13 03:45:51;;;;;;;98.22;36.50;;;7.10;99.90;;;;;;5074133;28;20534;-78
2023/02/13 03:47:38;;;;;;;88.40;34.80;;;7.10;99.90;;;;;;5073473;28;20186;-80
2023/02/13 03:50:07;;;;;;;84.82;33.10;;;7.00;99.90;;;;;;5072518;28;20171;-79
2023/02/13 03:52:39;;;;;;;79.78;35.05;;;6.70;99.90;;;;;;5073642;28;20206;-79
2023/02/13 04:01:01;;;;;;;76.65;32.63;;;6.60;99.90;;;;;;5073875;28;20549;-79
2023/02/13 04:03:58;;;;;;;82.78;32.33;;;6.70;99.90;;;;;;5073446;28;20209;-79
2023/02/13 04:06:53;;;;;;;80.15;31.73;;;6.60;99.90;;;;;;5071498;28;20922;-79
2023/02/13 04:09:19;;;;;;;83.07;31.67;;;6.60;99.90;;;;;;5073689;28;20159;-80
2023/02/13 04:12:16;;;;;;;84.80;32.83;;;6.60;99.90;;;;;;5073465;28;20689;-80
2023/02/13 04:14:58;;;;;;;75.03;30.92;;;6.50;99.90;;;;;;5038886;28;20209;-79
2023/02/13 04:17:32;;;;;;;87.63;34.70;;;6.50;99.90;;;;;;5073631;28;20162;-80
2023/02/13 04:19:58;;;;;;;73.68;32.08;;;6.60;99.90;;;;;;5073394;28;20202;-80
2023/02/13 04:22:23;;;;;;;81.60;31.92;;;6.40;99.90;;;;;;5073001;28;20543;-79
2023/02/13 04:24:49;;;;;;;69.07;30.45;;;6.00;99.90;;;;;;5073494;28;20583;-79
2023/02/13 04:27:16;;;;;;;75.65;32.08;;;6.10;99.90;;;;;;5073262;28;20245;-80
2023/02/13 04:29:42;;;;;;;85.70;31.65;;;6.30;99.90;;;;;;5073460;28;20363;-79
2023/02/13 04:32:13;;;;;;;77.97;30.35;;;6.30;99.90;;;;;;5071500;28;20285;-80
2023/02/13 04:34:39;;;;;;;79.53;30.95;;;6.30;99.90;;;;;;5072306;28;20162;-79
2023/02/13 04:37:04;;;;;;;76.10;29.80;;;6.20;99.90;;;;;;5071862;28;20170;-80
2023/02/13 04:39:30;;;;;;;77.97;29.98;;;6.10;99.90;;;;;;5072781;28;20210;-80
2023/02/13 04:41:56;;;;;;;71.07;31.13;;;6.00;99.90;;;;;;5073196;28;20670;-79
2023/02/13 04:44:21;;;;;;;74.55;30.23;;;5.90;99.90;;;;;;5073130;28;20169;-79
2023/02/13 04:46:47;;;;;;;76.43;29.92;;;5.90;99.90;;;;;;5072846;28;20159;-80
2023/02/13 04:49:12;;;;;;;82.00;32.22;;;5.90;99.90;;;;;;5071797;28;20171;-80
2023/02/13 04:51:38;;;;;;;79.90;28.60;;;5.90;99.90;;;;;;5072471;28;20197;-80
2023/02/13 04:54:04;;;;;;;74.93;29.00;;;6.00;99.90;;;;;;5072916;28;20662;-80
2023/02/13 04:56:29;;;;;;;73.53;29.17;;;5.90;99.90;;;;;;5072873;28;20178;-80
2023/02/13 04:58:55;;;;;;;80.25;31.48;;;6.00;99.90;;;;;;5072637;28;20746;-79
2023/02/13 05:01:21;;;;;;;74.75;29.95;;;6.00;99.90;;;;;;5072221;28;20162;-79
2023/02/13 05:03:47;;;;;;;74.25;29.30;;;5.90;99.90;;;;;;5072068;28;20166;-79
2023/02/13 05:06:13;;;;;;;70.60;29.33;;;5.80;99.90;;;;;;5070903;28;20182;-79
2023/02/13 05:08:38;;;;;;;70.97;29.27;;;5.90;99.90;;;;;;5072299;28;20163;-79
2023/02/13 05:11:05;;;;;;;70.88;28.95;;;6.10;99.90;;;;;;5072114;28;20249;-79
2023/02/13 05:13:31;;;;;;;67.22;29.63;;;6.10;99.90;;;;;;5070982;28;20519;-80
2023/02/13 05:15:56;;;;;;;73.40;30.63;;;6.00;99.90;;;;;;5072079;28;20232;-79
2023/02/13 05:18:22;;;;;;;71.70;30.15;;;5.80;99.90;;;;;;5072224;28;20661;-80
2023/02/13 05:23:21;;;;;;;65.70;28.08;;;5.60;99.90;;;;;;5072786;28;20170;-79
2023/02/13 05:23:33;;;;;;;67.03;28.95;;;5.50;99.90;;;;;;5072417;28;20180;-79
2023/02/13 05:25:59;;;;;;;71.30;27.52;;;5.60;99.90;;;;;;5072325;28;20162;-79
2023/02/13 05:31:08;;;;;;;73.32;26.58;;;5.80;99.90;;;;;;5071892;28;20258;-79
2023/02/13 05:33:34;;;;;;;74.15;31.55;;;5.60;99.90;;;;;;5072181;28;20257;-78
2023/02/13 05:35:59;;;;;;;69.20;29.48;;;5.50;99.90;;;;;;5072289;28;20223;-80
2023/02/13 05:38:25;;;;;;;70.00;28.55;;;5.40;99.90;;;;;;5070808;28;20222;-79
2023/02/13 05:40:51;;;;;;;60.35;29.00;;;5.50;99.90;;;;;;5072231;28;20258;-79
2023/02/13 05:43:16;;;;;;;67.55;27.52;;;5.50;99.90;;;;;;5072245;28;20182;-79
2023/02/13 05:45:42;;;;;;;65.05;28.92;;;5.50;99.90;;;;;;5072259;28;20167;-79
2023/02/13 05:48:07;;;;;;;66.57;27.77;;;5.50;99.90;;;;;;5072181;28;20257;-80
2023/02/13 05:50:33;;;;;;;63.17;27.75;;;5.30;99.90;;;;;;5072760;28;20165;-79
2023/02/13 05:52:58;;;;;;;66.85;27.50;;;5.20;99.90;;;;;;5070607;28;20194;-79
2023/02/13 05:55:24;;;;;;;72.40;30.75;;;5.40;99.90;;;;;;5070590;28;20162;-80
2023/02/13 05:57:55;;;;;;;75.90;28.50;;;5.30;99.90;;;;;;5071774;28;20181;-79
2023/02/13 06:00:21;;;;;;;76.85;32.10;;;5.20;99.90;;;;;;5070607;28;20217;-80
2023/02/13 06:02:46;;;;;;;69.38;29.83;;;5.40;99.90;;;;;;5071690;28;20221;-82
2023/02/13 06:05:12;;;;;;;63.33;27.95;;;5.30;99.90;;;;;;5070333;28;20209;-79
2023/02/13 06:07:37;;;;;;;66.57;28.05;;;5.30;99.90;;;;;;5071642;28;20162;-79
2023/02/13 06:10:03;;;;;;;73.72;32.05;;;5.30;99.90;;;;;;5070480;28;20166;-79
2023/02/13 06:12:29;;;;;;;76.88;30.90;;;5.40;99.90;;;;;;5070020;28;20251;-79
2023/02/13 06:14:54;;;;;;;61.90;28.13;;;5.40;99.90;;;;;;5070270;28;20228;-80
2023/02/13 06:17:20;;;;;;;73.43;28.23;;;5.40;99.90;;;;;;5070602;28;20547;-79
2023/02/13 06:19:45;;;;;;;69.25;29.20;;;5.20;99.90;;;;;;5071443;28;20285;-78
2023/02/13 06:22:11;;;;;;;59.67;26.88;;;5.30;99.90;;;;;;5071574;28;20193;-79
2023/02/13 06:24:37;;;;;;;66.07;28.92;;;5.50;99.90;;;;;;5071739;28;20232;-79
2023/02/13 06:27:02;;;;;;;64.22;27.77;;;5.50;99.90;;;;;;5070427;28;20181;-80
2023/02/13 06:29:29;;;;;;;72.50;27.67;;;5.30;99.90;;;;;;5074645;28;20574;-79
2023/02/13 06:31:56;;;;;;;59.40;26.58;;;5.10;99.90;;;;;;5074236;28;20195;-79
2023/02/13 06:34:21;;;;;;;59.72;26.38;;;5.00;99.90;;;;;;5075652;28;20163;-81
2023/02/13 06:36:47;;;;;;;60.35;27.35;;;5.30;99.90;;;;;;5074973;28;20163;-80
2023/02/13 06:39:13;;;;;;;64.00;27.73;;;5.20;99.90;;;;;;5074880;28;20289;-79
2023/02/13 06:41:38;;;;;;;68.13;28.40;;;5.20;99.90;;;;;;5072903;28;20197;-80
2023/02/13 06:44:04;;;;;;;65.20;27.23;;;5.20;99.90;;;;;;5074442;28;20181;-80
2023/02/13 06:46:29;;;;;;;68.57;25.98;;;5.30;99.90;;;;;;5074270;28;20162;-78
2023/02/13 06:48:55;;;;;;;60.72;25.00;;;5.50;99.90;;;;;;5074741;28;20574;-80
2023/02/13 06:51:21;;;;;;;58.65;25.55;;;5.40;99.90;;;;;;5072297;28;20232;-80
2023/02/13 06:53:46;;;;;;;65.50;26.13;;;5.40;99.90;;;;;;5073720;28;20206;-80
2023/02/13 06:56:12;;;;;;;50.80;23.67;;;5.40;99.90;;;;;;5073341;28;20235;-81
2023/02/13 06:58:38;;;;;;;72.30;25.65;;;5.60;99.90;;;;;;5073505;28;20221;-82
2023/02/13 07:01:04;;;;;;;63.28;26.05;;;5.50;99.90;;;;;;5073283;28;20178;-80
2023/02/13 07:03:30;;;;;;;58.47;25.42;;;5.70;99.90;;;;;;5072230;28;20174;-80
2023/02/13 07:05:56;;;;;;;58.42;25.35;;;5.80;99.90;;;;;;5072865;28;20638;-80
2023/02/13 07:08:21;;;;;;;58.47;24.70;;;5.60;99.90;;;;;;5073635;28;20166;-79
2023/02/13 07:10:47;;;;;;;64.03;26.20;;;5.60;99.90;;;;;;5071869;28;20171;-79
2023/02/13 07:13:13;;;;;;;56.85;26.58;;;5.80;99.90;;;;;;5073078;28;20193;-81
2023/02/13 07:15:38;;;;;;;66.18;26.45;;;5.60;99.90;;;;;;5074633;28;20177;-83
2023/02/13 07:18:05;;;;;;;61.97;26.13;;;5.60;99.90;;;;;;5072105;28;20646;-83
2023/02/13 07:20:31;;;;;;;56.60;25.67;;;5.40;99.90;;;;;;5073155;28;20179;-81
2023/02/13 07:23:01;;;;;;;57.95;26.15;;;5.20;99.90;;;;;;5074166;28;20190;-81
2023/02/13 07:25:27;;;;;;;68.38;28.02;;;5.40;99.90;;;;;;5074814;28;20509;-81
2023/02/13 07:27:53;;;;;;;60.85;25.05;;;5.50;99.90;;;;;;5073599;28;20188;-82
2023/02/13 07:30:19;;;;;;;67.00;26.20;;;5.60;99.90;;;;;;5073804;28;20291;-82
2023/02/13 07:32:44;;;;;;;73.82;28.42;;;5.40;99.90;;;;;;5074016;28;20200;-83
2023/02/13 07:35:10;;;;;;;63.35;24.92;;;5.20;99.90;;;;;;5068159;28;20258;-84
2023/02/13 07:37:35;;;;;;;57.00;25.88;;;5.10;99.90;;;;;;5071267;28;20704;-80
2023/02/13 07:40:03;;;;;;;55.22;23.17;;;5.30;99.90;;;;;;5072137;28;20190;-79
2023/02/13 07:42:31;;;;;;;66.05;26.00;;;5.40;99.90;;;;;;5073762;28;20228;-82
2023/02/13 07:44:57;;;;;;;64.65;26.65;;;5.50;99.90;;;;;;5071365;28;20170;-83
2023/02/13 07:47:23;;;;;;;68.05;26.08;;;5.60;99.90;;;;;;5072789;28;20167;-85
2023/02/13 07:49:48;;;;;;;53.28;24.55;;;5.70;99.90;;;;;;5073953;28;20166;-82
2023/02/13 07:52:14;;;;;;;50.40;25.30;;;5.90;99.90;;;;;;5072497;28;20297;-82
2023/02/13 07:54:46;;;;;;;62.03;26.50;;;6.20;99.90;;;;;;5073580;28;20163;-81
2023/02/13 07:57:12;;;;;;;71.90;25.90;;;6.00;99.90;;;;;;5073271;28;20219;-84
2023/02/13 07:59:38;;;;;;;62.80;27.10;;;6.00;99.90;;;;;;5071857;28;20260;-82
2023/02/13 08:02:03;;;;;;;61.90;26.52;;;6.00;99.90;;;;;;5073090;28;20210;-84
2023/02/13 08:04:29;;;;;;;60.25;25.58;;;6.00;99.90;;;;;;5073140;28;20178;-81
2023/02/13 08:06:55;;;;;;;54.42;26.23;;;6.20;99.90;;;;;;5072565;28;20171;-82
2023/02/13 08:12:07;;;;;;;50.80;24.70;;;6.40;99.90;;;;;;5073808;28;20251;-83
2023/02/13 08:14:32;;;;;;;55.53;25.08;;;6.40;99.90;;;;;;5070810;28;20555;-84
2023/02/13 08:16:59;;;;;;;57.67;26.00;;;6.50;99.90;;;;;;5068430;28;20541;-81
2023/02/13 08:19:25;;;;;;;62.40;25.58;;;6.60;99.90;;;;;;5056412;28;20251;-80
2023/02/13 08:21:51;;;;;;;60.42;26.63;;;6.70;99.90;;;;;;5072775;28;20659;-82
2023/02/13 08:24:16;;;;;;;56.88;25.25;;;6.70;99.90;;;;;;5073725;28;20177;-81
2023/02/13 08:26:42;;;;;;;52.92;24.25;;;6.90;99.90;;;;;;5072265;28;20169;-82
2023/02/13 08:29:09;;;;;;;62.97;25.83;;;6.90;99.90;;;;;;5071172;28;20186;-81
2023/02/13 08:31:34;;;;;;;54.83;25.95;;;7.10;99.90;;;;;;5070848;28;20194;-82
2023/02/13 08:34:00;;;;;;;54.33;24.38;;;7.10;99.90;;;;;;5072407;28;20174;-81
2023/02/13 08:36:26;;;;;;;57.05;25.40;;;7.40;99.90;;;;;;5054892;28;20179;-82
2023/02/13 08:38:51;;;;;;;58.63;27.42;;;7.60;99.90;;;;;;5053288;28;20221;-83
2023/02/13 08:41:19;;;;;;;54.10;25.23;;;7.70;99.90;;;;;;5067632;28;20202;-85
2023/02/13 08:43:45;;;;;;;54.58;24.42;;;7.70;99.90;;;;;;5073226;28;20167;-80
2023/02/13 08:46:10;;;;;;;53.72;24.08;;;7.70;99.90;;;;;;5070812;28;20170;-79
2023/02/13 08:48:36;;;;;;;53.67;23.08;;;7.70;99.90;;;;;;5072496;28;20163;-81
2023/02/13 08:51:10;;;;;;;53.35;24.27;;;7.80;99.90;;;;;;5071277;28;20614;-80
2023/02/13 08:53:36;;;;;;;49.75;24.42;;;7.90;99.90;;;;;;5072588;28;20197;-79
2023/02/13 08:56:03;;;;;;;53.75;25.80;;;8.00;99.90;;;;;;5072717;28;20234;-80
2023/02/13 08:58:28;;;;;;;52.45;25.50;;;8.00;99.90;;;;;;5071577;28;20715;-81
2023/02/13 09:00:54;;;;;;;50.05;24.40;;;8.10;99.90;;;;;;5070678;28;20303;-80
2023/02/13 09:03:20;;;;;;;63.97;26.02;;;8.10;99.90;;;;;;5071141;28;20288;-80
2023/02/13 09:05:46;;;;;;;60.67;26.17;;;8.20;99.90;;;;;;5072527;28;20249;-81
2023/02/13 09:08:12;;;;;;;48.28;25.23;;;8.20;99.90;;;;;;5071119;28;20266;-78
2023/02/13 09:10:39;;;;;;;51.70;24.55;;;8.30;99.90;;;;;;5072568;28;20171;-79
2023/02/13 09:13:05;;;;;;;45.53;24.00;;;8.20;99.90;;;;;;5071570;28;20198;-79
2023/02/13 09:15:31;;;;;;;60.72;23.83;;;8.20;99.90;;;;;;5072064;28;20248;-80
2023/02/13 09:17:57;;;;;;;52.15;25.48;;;8.40;99.90;;;;;;5071833;28;20640;-79
2023/02/13 09:20:23;;;;;;;46.53;23.88;;;8.50;99.90;;;;;;5071598;28;20205;-81
2023/02/13 09:22:49;;;;;;;54.13;24.05;;;8.60;99.90;;;;;;5071490;28;20273;-78
2023/02/13 09:25:14;;;;;;;53.28;26.05;;;8.70;99.90;;;;;;5071913;28;20206;-79
2023/02/13 09:27:40;;;;;;;56.17;26.38;;;8.80;99.90;;;;;;5072961;28;20648;-86
2023/02/13 09:30:07;;;;;;;46.47;23.75;;;8.90;99.90;;;;;;5072946;28;20174;-81
2023/02/13 09:32:33;;;;;;;45.80;24.05;;;8.90;99.90;;;;;;5072400;28;20265;-83
2023/02/13 09:34:59;;;;;;;43.47;22.08;;;9.00;99.90;;;;;;5072772;28;20190;-83
2023/02/13 09:37:25;;;;;;;47.65;21.38;;;9.10;99.90;;;;;;5072244;28;20173;-84
2023/02/13 09:39:52;;;;;;;41.67;19.48;;;9.20;99.90;;;;;;5069658;28;20283;-84
2023/02/13 09:42:25;;;;;;;34.65;17.52;;;9.40;99.90;;;;;;5071890;28;20262;-82
2023/02/13 09:44:54;;;;;;;38.72;18.55;;;9.40;99.90;;;;;;5072363;28;20599;-81
2023/02/13 09:47:43;;;;;;;31.92;17.25;;;9.50;99.90;;;;;;5072345;28;20190;-84
2023/02/13 09:50:28;;;;;;;30.88;15.63;;;9.70;99.90;;;;;;5072320;28;20253;-83
2023/02/13 09:52:55;;;;;;;25.02;14.82;;;9.80;99.90;;;;;;5072347;28;20634;-84
2023/02/13 09:55:36;;;;;;;25.80;15.63;;;9.90;99.90;;;;;;5072424;28;20241;-82
2023/02/13 09:58:14;;;;;;;23.80;14.65;;;10.00;99.90;;;;;;5071434;28;20170;-83
2023/02/13 10:00:43;;;;;;;23.23;13.93;;;10.00;99.90;;;;;;5072351;28;20193;-83
2023/02/13 10:03:25;;;;;;;29.05;14.32;;;10.20;99.90;;;;;;5072986;28;20213;-84
2023/02/13 10:06:18;;;;;;;26.17;14.30;;;10.20;99.90;;;;;;5076621;28;20171;-84
2023/02/13 10:08:55;;;;;;;23.17;13.82;;;10.20;99.90;;;;;;5065298;28;20669;-81
2023/02/13 10:11:33;;;;;;;23.05;12.82;;;10.20;99.90;;;;;;5076353;28;20169;-82
2023/02/13 10:14:16;;;;;;;26.30;13.43;;;10.20;99.90;;;;;;5076576;28;20177;-87
2023/02/13 10:16:50;;;;;;;20.45;12.52;;;10.20;99.90;;;;;;5076564;28;20922;-86
2023/02/13 10:19:36;;;;;;;28.13;13.60;;;10.40;99.90;;;;;;5076096;28;20202;-82
2023/02/13 10:22:11;;;;;;;22.15;11.88;;;10.40;99.90;;;;;;5075942;28;20182;-82
2023/02/13 10:24:47;;;;;;;16.40;10.63;;;10.30;99.90;;;;;;5076426;28;20169;-82
2023/02/13 10:27:23;;;;;;;26.90;12.95;;;10.40;99.90;;;;;;5075895;28;20307;-85
2023/02/13 10:30:05;;;;;;;21.60;12.25;;;10.50;99.90;;;;;;5075673;28;20556;-81
2023/02/13 10:32:37;;;;;;;15.05;10.88;;;10.50;99.90;;;;;;5074116;28;20665;-81
2023/02/13 10:35:13;;;;;;;20.85;11.90;;;10.50;99.90;;;;;;5075578;28;20649;-80
2023/02/13 10:37:40;;;;;;;22.20;13.23;;;10.60;99.90;;;;;;5075061;28;20174;-81
2023/02/13 10:40:10;;;;;;;17.23;10.90;;;10.70;99.90;;;;;;5073507;28;20677;-84
2023/02/13 10:42:45;;;;;;;26.13;13.25;;;10.80;99.90;;;;;;5075021;28;20624;-82
2023/02/13 10:45:23;;;;;;;16.92;11.85;;;10.80;99.90;;;;;;5075401;28;20174;-84
2023/02/13 10:48:12;;;;;;;30.60;11.90;;;10.70;99.90;;;;;;5075237;28;20520;-80
2023/02/13 10:51:03;;;;;;;25.95;12.00;;;10.70;99.90;;;;;;5074040;28;20263;-82
2023/02/13 10:54:01;;;;;;;26.23;13.13;;;10.70;99.90;;;;;;5073768;28;20659;-80
2023/02/13 10:56:58;;;;;;;18.20;12.57;;;10.60;99.90;;;;;;5075496;28;20246;-81
2023/02/13 10:59:57;;;;;;;24.50;12.07;;;10.70;99.90;;;;;;5075674;28;20284;-85
2023/02/13 11:02:26;;;;;;;19.48;12.65;;;10.60;99.90;;;;;;5075585;28;20198;-85
2023/02/13 11:04:59;;;;;;;29.90;12.88;;;10.80;99.90;;;;;;5075409;28;20197;-82
2023/02/13 11:07:26;;;;;;;33.47;12.02;;;10.80;99.90;;;;;;5075073;28;20246;-80
2023/02/13 11:09:55;;;;;;;20.55;12.00;;;10.90;99.90;;;;;;5075799;28;20224;-86
2023/02/13 11:12:30;;;;;;;19.73;12.00;;;10.90;99.90;;;;;;5074429;28;20537;-82
2023/02/13 11:14:58;;;;;;;19.63;12.80;;;10.70;99.90;;;;;;5074463;28;20185;-84
2023/02/13 11:17:28;;;;;;;18.80;12.43;;;10.70;99.90;;;;;;5073837;28;20188;-86
2023/02/13 11:19:56;;;;;;;18.45;11.27;;;10.90;99.90;;;;;;5075274;28;20255;-88
2023/02/13 11:22:38;;;;;;;23.92;12.52;;;11.00;99.90;;;;;;5075213;28;20175;-80
2023/02/13 11:25:03;;;;;;;25.63;13.30;;;11.00;99.90;;;;;;5073958;28;20175;-83
2023/02/13 11:27:33;;;;;;;24.90;13.73;;;11.20;99.90;;;;;;5074423;28;20572;-84
2023/02/13 11:30:02;;;;;;;30.10;14.57;;;11.30;99.90;;;;;;5074952;28;20163;-87
2023/02/13 11:32:31;;;;;;;29.33;16.08;;;11.40;99.90;;;;;;5074424;28;20190;-85
2023/02/13 11:35:26;;;;;;;24.55;15.77;;;11.50;99.90;;;;;;5079976;28;20170;-79
2023/02/13 11:38:19;;;;;;;26.20;14.93;;;11.60;99.90;;;;;;5089486;28;20166;-82
2023/02/13 11:40:51;;;;;;;33.20;15.77;;;11.50;99.90;;;;;;5074022;28;20231;-78
2023/02/13 11:43:35;;;;;;;24.90;15.27;;;11.50;99.90;;;;;;5074183;28;20182;-84
2023/02/13 11:46:08;;;;;;;26.42;15.93;;;11.40;99.90;;;;;;5074354;28;20252;-82
2023/02/13 11:48:34;;;;;;;26.40;15.85;;;11.40;99.90;;;;;;5074412;28;20612;-88
2023/02/13 11:51:00;;;;;;;34.63;15.25;;;11.50;99.90;;;;;;5072775;28;20171;-83
2023/02/13 11:53:31;;;;;;;30.58;14.60;;;11.50;99.90;;;;;;5073659;28;20186;-81
2023/02/13 11:56:05;;;;;;;25.40;14.32;;;11.70;99.90;;;;;;5074305;28;20174;-81
2023/02/13 11:58:31;;;;;;;29.63;15.45;;;11.70;99.90;;;;;;5073909;28;20205;-82
2023/02/13 12:01:08;;;;;;;22.55;14.15;;;11.80;99.90;;;;;;5072729;28;20178;-80
2023/02/13 12:03:34;;;;;;;22.55;13.65;;;11.60;99.90;;;;;;5073516;28;20223;-80
2023/02/13 12:05:59;;;;;;;25.27;13.73;;;11.70;99.90;;;;;;5074075;28;20158;-81
2023/02/13 12:08:25;;;;;;;28.48;13.85;;;11.70;99.90;;;;;;5073548;28;20174;-80
2023/02/13 12:10:53;;;;;;;25.30;14.00;;;11.60;99.90;;;;;;5073552;28;20178;-79
2023/02/13 12:13:33;;;;;;;29.00;15.18;;;11.60;99.90;;;;;;5073215;28;20251;-79
2023/02/13 12:16:09;;;;;;;38.10;14.52;;;11.60;99.90;;;;;;5073413;28;20267;-79
2023/02/13 12:18:42;;;;;;;25.20;14.02;;;11.40;99.90;;;;;;5073256;28;20243;-78
2023/02/13 12:21:27;;;;;;;19.50;12.38;;;11.40;99.90;;;;;;5073446;28;20181;-79
2023/02/13 12:24:03;;;;;;;19.60;12.55;;;11.40;99.90;;;;;;5073040;28;20253;-81
2023/02/13 12:26:42;;;;;;;19.33;13.38;;;11.60;99.90;;;;;;5071419;28;20200;-81
2023/02/13 12:29:44;;;;;;;29.27;13.45;;;11.70;99.90;;;;;;5073063;28;20575;-82
2023/02/13 12:32:28;;;;;;;21.45;12.57;;;11.80;99.90;;;;;;5073580;28;20186;-82
2023/02/13 12:35:12;;;;;;;33.10;13.35;;;11.80;99.90;;;;;;5073750;28;20162;-85
2023/02/13 12:37:49;;;;;;;20.05;11.98;;;11.90;99.90;;;;;;5073263;28;20257;-84
2023/02/13 12:40:42;;;;;;;20.25;12.25;;;11.80;99.90;;;;;;5073274;28;20202;-85
2023/02/13 12:43:33;;;;;;;18.70;11.25;;;11.80;99.90;;;;;;5073085;28;20187;-83
2023/02/13 12:46:17;;;;;;;17.02;10.93;;;12.00;99.90;;;;;;5073695;28;20159;-82
2023/02/13 12:48:57;;;;;;;18.77;9.13;;;12.00;99.90;;;;;;5073046;28;20205;-81
2023/02/13 12:51:38;;;;;;;17.60;9.82;;;12.10;99.90;;;;;;5071365;28;20589;-81
2023/02/13 12:54:21;;;;;;;11.27;9.05;;;12.00;99.90;;;;;;5073245;28;20252;-85
2023/02/13 12:57:06;;;;;;;15.52;9.80;;;12.10;99.90;;;;;;5073335;28;20164;-81
2023/02/13 12:59:44;;;;;;;16.50;10.38;;;12.10;99.90;;;;;;5072605;28;20229;-82
2023/02/13 13:02:35;;;;;;;18.63;9.02;;;12.10;99.90;;;;;;5072818;28;20190;-81
2023/02/13 13:05:28;;;;;;;8.57;7.75;;;12.10;99.90;;;;;;5072804;28;20174;-81
2023/02/13 13:08:20;;;;;;;13.00;9.68;;;12.30;99.90;;;;;;5071267;28;20175;-85
2023/02/13 13:11:03;;;;;;;10.50;8.40;;;12.40;99.90;;;;;;5072853;28;20165;-80
2023/02/13 13:14:03;;;;;;;13.85;9.02;;;12.40;99.90;;;;;;5072965;28;20218;-85
2023/02/13 13:16:44;;;;;;;13.68;9.23;;;12.40;99.90;;;;;;5073305;28;20171;-87
2023/02/13 13:19:43;;;;;;;13.60;8.50;;;12.40;99.90;;;;;;5073362;28;20228;-82
2023/02/13 13:22:39;;;;;;;9.93;8.20;;;12.30;99.90;;;;;;5072534;28;20186;-85
2023/02/13 13:25:11;;;;;;;16.33;9.32;;;12.40;99.90;;;;;;5071959;28;20174;-81
2023/02/13 13:27:45;;;;;;;17.48;9.38;;;12.50;99.90;;;;;;5073423;28;20170;-82
2023/02/13 13:30:28;;;;;;;13.93;9.45;;;12.40;99.90;;;;;;5072770;28;20170;-83
2023/02/13 13:33:05;;;;;;;13.00;9.80;;;12.40;99.90;;;;;;5072912;28;20200;-80
2023/02/13 13:35:33;;;;;;;20.95;9.25;;;12.50;99.90;;;;;;5071639;28;20197;-86
2023/02/13 13:38:17;;;;;;;18.92;10.52;;;12.40;99.90;;;;;;5072750;28;20500;-82